Time;durP1;ratioP1;P1;durP2;ratioP2;P2;SDS_P1;SDS_P2;PMS_P1;PMS_P2;Temp;Humidity;BMP_temperature;BMP_pressure;BME280_temperature;BME280_humidity;BME280_pressure;Samples;Min_cycle;Max_cycle;Signal;HPM_P1;HPM_P2
2021/12/29 04:32:14;;;;;;;1.50;1.10;;;;;;;13.84;55.88;97911.22;3736084;23;20504;-79
2021/12/29 04:35:36;;;;;;;1.03;1.03;;;;;;;13.52;56.43;97891.22;6792443;29;20237;-82
2021/12/29 04:38:58;;;;;;;1.20;1.10;;;;;;;14.04;55.37;97920.47;6786035;29;20218;-81
2021/12/29 04:42:20;;;;;;;1.00;1.00;;;;;;;13.91;56.07;97920.00;6815522;29;20702;-80
2021/12/29 04:45:42;;;;;;;1.40;1.20;;;;;;;13.86;56.83;97917.22;6812505;29;20221;-83
2021/12/29 04:49:06;;;;;;;1.70;1.07;;;;;;;13.51;57.71;97893.06;6813990;29;20210;-80
2021/12/29 04:52:28;;;;;;;2.17;1.10;;;;;;;13.59;58.16;97932.47;6816801;29;20226;-82
2021/12/29 04:55:51;;;;;;;0.90;0.90;;;;;;;13.79;58.21;97941.78;6817780;29;20237;-81
2021/12/29 04:59:14;;;;;;;1.17;1.17;;;;;;;13.87;57.90;97949.47;6819215;29;20229;-81
2021/12/29 05:02:36;;;;;;;1.33;1.10;;;;;;;13.70;58.89;97953.25;6813675;29;20241;-80
2021/12/29 05:08:24;;;;;;;2.27;1.27;;;;;;;13.40;60.82;97958.16;6815659;29;20217;-82
2021/12/29 05:09:42;;;;;;;1.33;1.23;;;;;;;13.06;62.48;97967.22;6814323;29;20214;-80
2021/12/29 05:13:05;;;;;;;0.97;0.90;;;;;;;13.25;62.56;97972.22;6815251;29;20244;-79
2021/12/29 05:16:28;;;;;;;0.93;0.93;;;;;;;13.02;63.54;97977.72;6813720;29;20233;-81
2021/12/29 05:19:50;;;;;;;1.40;1.23;;;;;;;12.79;63.04;97952.56;6814172;29;20667;-81
2021/12/29 05:23:12;;;;;;;1.37;1.27;;;;;;;12.35;63.63;97910.03;6811463;29;20726;-80
2021/12/29 05:26:35;;;;;;;1.93;1.27;;;;;;;12.12;64.45;97908.19;6810930;29;20243;-85
2021/12/29 05:29:57;;;;;;;1.30;1.20;;;;;;;12.82;63.25;97966.47;6823209;29;20217;-84
2021/12/29 05:33:18;;;;;;;1.40;1.30;;;;;;;12.96;62.70;97965.16;6822580;29;20238;-83
2021/12/29 05:36:41;;;;;;;1.60;1.20;;;;;;;13.09;62.66;97981.09;6808071;29;20267;-81
2021/12/29 05:40:05;;;;;;;1.07;1.07;;;;;;;12.78;63.15;97976.13;6808497;29;20217;-82
2021/12/29 05:43:28;;;;;;;2.70;1.50;;;;;;;13.20;62.67;97979.41;6799923;29;20309;-81
2021/12/29 05:46:50;;;;;;;1.63;1.27;;;;;;;12.86;62.98;97935.16;6806506;29;20230;-81
2021/12/29 05:50:15;;;;;;;1.90;1.33;;;;;;;13.43;62.34;97996.38;6787086;29;20693;-80
2021/12/29 05:53:37;;;;;;;7.10;1.50;;;;;;;13.33;61.64;97960.19;6786558;29;20263;-80
2021/12/29 05:57:00;;;;;;;4.27;1.73;;;;;;;13.77;60.91;98008.09;6805428;29;20334;-80
2021/12/29 06:00:24;;;;;;;3.50;1.50;;;;;;;13.84;61.15;98006.03;6814136;29;20225;-80
2021/12/29 06:03:45;;;;;;;2.77;1.60;;;;;;;13.46;62.14;98005.91;6813661;29;20257;-80
2021/12/29 06:07:07;;;;;;;2.90;1.40;;;;;;;13.72;61.58;98010.72;6812895;29;20221;-79
2021/12/29 06:10:29;;;;;;;4.33;2.80;;;;;;;13.60;61.65;98023.50;6813770;29;20217;-80
2021/12/29 06:13:52;;;;;;;3.00;2.63;;;;;;;13.90;60.97;98032.16;6813292;29;20214;-80
2021/12/29 06:17:14;;;;;;;3.60;2.80;;;;;;;14.16;60.01;98026.91;6812435;29;20238;-81
2021/12/29 06:20:38;;;;;;;4.73;3.07;;;;;;;14.00;59.75;98022.34;6813328;29;20265;-81
2021/12/29 06:24:00;;;;;;;3.27;2.53;;;;;;;13.16;62.07;98029.69;6813819;29;20214;-79
2021/12/29 06:27:22;;;;;;;3.77;2.50;;;;;;;13.78;61.22;98028.69;6814235;29;20210;-79
2021/12/29 06:30:45;;;;;;;4.97;2.70;;;;;;;13.56;61.23;98012.34;6814401;29;20276;-81
2021/12/29 06:34:07;;;;;;;3.60;2.50;;;;;;;13.54;62.07;98019.06;6812056;29;20251;-79
2021/12/29 06:37:28;;;;;;;6.50;3.00;;;;;;;13.65;61.62;98010.88;6812557;29;20713;-79
2021/12/29 06:40:50;;;;;;;3.47;2.10;;;;;;;13.87;60.66;98024.53;6813059;29;20234;-77
2021/12/29 06:44:12;;;;;;;3.33;2.37;;;;;;;13.72;60.33;97992.59;6811506;29;20711;-80
2021/12/29 06:47:38;;;;;;;4.03;2.40;;;;;;;13.70;60.86;98023.69;6792021;29;20302;-80
2021/12/29 06:50:59;;;;;;;3.27;1.90;;;;;;;13.59;61.24;98029.97;6786770;29;20238;-80
2021/12/29 06:54:21;;;;;;;2.13;1.60;;;;;;;13.77;61.46;98032.47;6786807;29;20211;-82
2021/12/29 06:57:43;;;;;;;6.03;2.00;;;;;;;13.46;61.54;98027.56;6786720;29;20234;-83
2021/12/29 07:01:05;;;;;;;3.00;1.90;;;;;;;13.86;60.65;98041.88;6787365;29;20238;-81
2021/12/29 07:04:28;;;;;;;1.70;1.60;;;;;;;13.30;61.91;98056.25;6786683;29;20225;-81
2021/12/29 07:07:52;;;;;;;4.43;2.40;;;;;;;13.73;61.35;98061.13;6788615;29;20211;-81
2021/12/29 07:11:15;;;;;;;4.13;2.33;;;;;;;13.11;63.05;98070.19;6789576;29;20626;-81
2021/12/29 07:14:38;;;;;;;3.60;2.50;;;;;;;13.56;62.37;98073.78;6788314;29;20343;-81
2021/12/29 07:18:01;;;;;;;3.90;2.60;;;;;;;13.07;63.26;98063.59;6787648;29;20266;-80
2021/12/29 07:21:24;;;;;;;7.77;2.70;;;;;;;13.85;61.74;98095.22;6788885;29;20260;-81
2021/12/29 07:24:48;;;;;;;3.53;2.57;;;;;;;13.03;62.78;98057.00;6788480;29;20210;-83
2021/12/29 07:28:10;;;;;;;6.50;3.60;;;;;;;13.43;62.95;98125.53;6787130;29;20294;-80
2021/12/29 07:31:32;;;;;;;6.20;3.23;;;;;;;13.68;61.35;98102.47;6788438;29;20230;-78
2021/12/29 07:34:54;;;;;;;2.53;1.20;;;;;;;13.23;61.44;98120.50;6800399;29;20230;-82
2021/12/29 07:38:18;;;;;;;3.27;1.70;;;;;;;13.60;61.02;98124.53;6814258;29;20230;-84
2021/12/29 07:41:40;;;;;;;3.80;2.20;;;;;;;13.72;60.49;98127.19;6814421;29;20242;-88
2021/12/29 07:45:03;;;;;;;4.33;2.00;;;;;;;13.48;61.23;98134.59;6815577;29;20226;-82
2021/12/29 07:48:29;;;;;;;1.80;1.60;;;;;;;13.76;60.75;98137.31;6815185;29;20206;-80
2021/12/29 07:51:51;;;;;;;1.93;1.70;;;;;;;13.87;60.02;98135.63;6814651;29;20222;-80
2021/12/29 07:55:14;;;;;;;5.93;2.17;;;;;;;13.64;61.16;98162.81;6813210;29;20242;-80
2021/12/29 07:58:36;;;;;;;1.93;1.33;;;;;;;13.54;61.31;98163.44;6813780;29;20226;-82
2021/12/29 08:01:58;;;;;;;1.80;1.70;;;;;;;13.68;61.20;98169.41;6797889;29;20237;-85
2021/12/29 08:05:20;;;;;;;2.03;1.50;;;;;;;13.73;61.32;98167.59;6786951;29;20222;-82
2021/12/29 08:08:42;;;;;;;3.73;1.40;;;;;;;13.45;62.54;98181.09;6789124;29;20207;-83
2021/12/29 08:12:05;;;;;;;3.20;2.03;;;;;;;13.32;62.13;98169.69;6789594;29;20254;-86
2021/12/29 08:15:27;;;;;;;3.50;1.90;;;;;;;13.42;62.34;98161.78;6788655;29;20207;-83
2021/12/29 08:18:49;;;;;;;2.37;1.70;;;;;;;13.53;62.04;98178.03;6790526;29;20231;-81
2021/12/29 08:22:11;;;;;;;3.03;1.67;;;;;;;13.24;62.22;98176.31;6787875;29;20239;-80
2021/12/29 08:25:33;;;;;;;2.63;1.80;;;;;;;13.33;62.11;98172.16;6788635;29;20715;-82
2021/12/29 08:28:57;;;;;;;2.37;1.77;;;;;;;13.79;61.22;98182.91;6788054;29;20568;-82
2021/12/29 08:32:20;;;;;;;1.47;1.37;;;;;;;13.03;62.53;98187.72;6788486;29;20234;-85
2021/12/29 08:35:42;;;;;;;2.60;1.40;;;;;;;13.56;61.54;98203.78;6790537;29;20207;-83
2021/12/29 08:39:03;;;;;;;2.70;1.43;;;;;;;13.50;61.62;98185.78;6786860;29;20234;-84
2021/12/29 08:42:25;;;;;;;2.77;1.80;;;;;;;14.07;60.44;98201.91;6789719;29;20227;-85
2021/12/29 08:45:49;;;;;;;2.87;2.23;;;;;;;14.06;60.27;98197.53;6806715;29;20215;-83
2021/12/29 08:49:11;;;;;;;3.97;2.03;;;;;;;14.22;60.02;98183.22;6794548;29;20202;-84
2021/12/29 08:52:33;;;;;;;2.57;1.77;;;;;;;14.19;59.25;98180.19;6792146;29;20238;-83
2021/12/29 08:55:57;;;;;;;2.23;1.50;;;;;;;14.13;59.47;98168.41;6802510;29;20850;-83
2021/12/29 08:59:19;;;;;;;3.13;1.60;;;;;;;13.81;59.34;98115.72;6812838;29;20210;-84
2021/12/29 09:02:43;;;;;;;3.00;2.80;;;;;;;14.42;58.68;98164.63;6811824;29;20257;-82
2021/12/29 09:06:04;;;;;;;1.70;1.60;;;;;;;13.78;58.34;98053.09;6810596;29;20250;-82
2021/12/29 09:09:26;;;;;;;2.67;2.30;;;;;;;13.80;59.24;98095.13;6812367;29;20221;-83
2021/12/29 09:12:51;;;;;;;1.57;1.47;;;;;;;13.96;59.93;98181.06;6814075;29;20238;-86
2021/12/29 09:16:13;;;;;;;2.13;1.50;;;;;;;13.78;59.09;98170.41;6812296;29;20211;-85
2021/12/29 09:19:40;;;;;;;2.87;2.60;;;;;;;13.64;58.80;98173.63;6806109;29;20211;-85
2021/12/29 09:23:04;;;;;;;3.07;1.50;;;;;;;13.55;57.81;98194.03;6813850;29;20237;-83
2021/12/29 09:26:25;;;;;;;1.97;1.77;;;;;;;14.03;57.13;98194.47;6811307;29;20313;-83
2021/12/29 09:29:47;;;;;;;1.90;1.80;;;;;;;14.25;57.29;98190.03;6794031;29;20215;-85
2021/12/29 09:33:09;;;;;;;1.97;1.77;;;;;;;14.15;56.81;98197.97;6786573;29;20266;-83
2021/12/29 09:36:32;;;;;;;2.77;1.50;;;;;;;14.09;56.40;98204.38;6783777;29;20234;-83
2021/12/29 09:39:53;;;;;;;2.80;1.40;;;;;;;14.05;55.97;98198.59;6783674;29;20566;-83
2021/12/29 09:43:15;;;;;;;2.40;2.03;;;;;;;14.21;56.61;98218.72;6784323;29;20632;-83
2021/12/29 09:46:40;;;;;;;3.53;1.77;;;;;;;13.96;57.24;98216.31;6793153;29;20238;-86
2021/12/29 09:50:03;;;;;;;2.33;1.67;;;;;;;14.46;55.72;98221.91;6810589;29;20244;-86
2021/12/29 09:53:26;;;;;;;3.63;1.93;;;;;;;14.32;56.35;98202.41;6809447;29;20222;-85
2021/12/29 09:56:47;;;;;;;5.00;3.83;;;;;;;14.42;57.08;98191.75;6808532;29;20230;-84
2021/12/29 10:00:12;;;;;;;3.37;2.27;;;;;;;14.68;56.09;98199.25;6808221;29;20587;-83
2021/12/29 10:03:36;;;;;;;3.20;2.37;;;;;;;14.49;56.95;98203.25;6809033;29;20227;-83
2021/12/29 10:06:57;;;;;;;4.53;3.07;;;;;;;14.32;56.35;98148.16;6808338;29;20243;-84
2021/12/29 10:10:23;;;;;;;17.23;12.50;;;;;;;14.91;56.66;98225.41;6809373;29;20234;-84
2021/12/29 10:13:46;;;;;;;24.80;18.67;;;;;;;14.79;56.80;98206.50;6808557;29;20210;-84
2021/12/29 10:17:12;;;;;;;7.93;5.93;;;;;;;15.08;56.33;98210.75;6808074;29;20261;-83
2021/12/29 10:20:35;;;;;;;9.30;7.43;;;;;;;14.86;56.44;98206.34;6807417;29;20285;-83
2021/12/29 10:23:59;;;;;;;5.00;3.97;;;;;;;15.17;56.62;98203.81;6807880;29;20218;-83
2021/12/29 10:27:23;;;;;;;8.73;5.77;;;;;;;15.51;55.53;98202.72;6806588;29;20244;-85
2021/12/29 10:30:45;;;;;;;2.80;1.63;;;;;;;14.98;56.04;98193.50;6806344;29;20226;-83
2021/12/29 10:34:08;;;;;;;1.93;1.63;;;;;;;15.52;53.60;98190.78;6813602;29;20225;-84
2021/12/29 10:37:30;;;;;;;2.13;1.50;;;;;;;15.34;54.50;98198.41;6814059;29;20235;-86
2021/12/29 10:41:02;;;;;;;3.03;1.67;;;;;;;15.20;54.08;98159.06;6813162;29;20218;-86
2021/12/29 10:44:32;;;;;;;3.37;2.00;;;;;;;14.29;56.54;98170.31;6813548;29;20401;-82
2021/12/29 10:47:54;;;;;;;2.53;1.60;;;;;;;14.38;57.14;98176.19;6817563;29;20214;-81
2021/12/29 10:51:16;;;;;;;2.03;1.80;;;;;;;14.44;55.44;98129.94;6817247;29;20231;-81
2021/12/29 10:54:38;;;;;;;1.43;1.33;;;;;;;14.42;56.21;98188.19;6815113;29;20229;-81
2021/12/29 10:58:07;;;;;;;3.63;1.93;;;;;;;14.86;54.63;98171.06;6814387;29;20231;-81
2021/12/29 11:01:36;;;;;;;2.27;1.63;;;;;;;15.26;54.25;98194.19;6812399;29;20234;-84
2021/12/29 11:05:00;;;;;;;2.90;1.70;;;;;;;14.78;53.91;98144.31;6814238;29;20220;-82
2021/12/29 11:08:22;;;;;;;4.33;2.07;;;;;;;14.92;54.72;98170.88;6814443;29;20221;-86
2021/12/29 11:11:45;;;;;;;2.57;1.60;;;;;;;14.80;55.40;98191.84;6794476;29;20243;-85
2021/12/29 11:15:15;;;;;;;3.23;1.80;;;;;;;14.74;55.70;98183.88;6787719;29;20235;-84
2021/12/29 11:18:43;;;;;;;3.23;1.30;;;;;;;15.13;54.61;98191.00;6784732;29;20318;-84
2021/12/29 11:22:09;;;;;;;2.47;1.60;;;;;;;14.96;55.00;98184.75;6788467;29;20270;-82
2021/12/29 11:25:32;;;;;;;1.93;1.77;;;;;;;14.95;55.25;98183.97;6788786;29;20218;-83
2021/12/29 11:29:02;;;;;;;2.70;2.20;;;;;;;15.52;54.10;98177.19;6788605;29;20669;-85
2021/12/29 11:32:28;;;;;;;3.10;2.13;;;;;;;15.16;54.80;98175.03;6786729;29;20289;-85
2021/12/29 11:35:53;;;;;;;3.20;1.70;;;;;;;15.22;54.15;98170.50;6790466;29;20215;-85
2021/12/29 11:39:14;;;;;;;4.37;1.90;;;;;;;15.51;53.95;98178.28;6784952;29;20234;-85
2021/12/29 11:42:36;;;;;;;2.93;1.80;;;;;;;15.82;53.62;98166.72;6784987;29;20523;-82
2021/12/29 11:45:58;;;;;;;2.97;1.70;;;;;;;15.62;53.64;98155.59;6785878;29;20203;-82
2021/12/29 11:49:21;;;;;;;3.10;1.87;;;;;;;14.82;54.29;98100.13;6786730;29;20253;-83
2021/12/29 11:52:54;;;;;;;1.60;1.43;;;;;;;15.14;54.49;98157.34;6786056;29;20231;-81
2021/12/29 11:56:19;;;;;;;4.23;1.70;;;;;;;14.86;54.94;98150.16;6787748;29;20610;-83
2021/12/29 11:59:41;;;;;;;6.37;2.03;;;;;;;14.63;55.57;98141.38;6788276;29;20231;-82
2021/12/29 12:03:10;;;;;;;1.67;1.37;;;;;;;14.82;55.32;98180.75;6786499;29;20301;-81
2021/12/29 12:06:33;;;;;;;3.70;1.50;;;;;;;14.94;55.38;98160.59;6785399;29;20584;-85
2021/12/29 12:10:01;;;;;;;2.77;1.50;;;;;;;15.03;54.88;98171.84;6786717;29;20235;-85
2021/12/29 12:13:25;;;;;;;4.63;2.53;;;;;;;14.85;55.38;98147.66;6786168;29;20231;-81
2021/12/29 12:16:56;;;;;;;4.70;1.97;;;;;;;15.42;54.06;98163.50;6786426;29;20239;-82
2021/12/29 12:20:17;;;;;;;2.90;1.53;;;;;;;15.60;53.42;98152.34;6792133;29;20197;-82
2021/12/29 12:23:40;;;;;;;4.17;2.23;;;;;;;15.20;54.69;98172.63;6806288;29;20206;-84
2021/12/29 12:27:06;;;;;;;3.57;1.60;;;;;;;15.54;53.45;98160.66;6816039;29;20308;-81
2021/12/29 12:30:37;;;;;;;7.27;3.30;;;;;;;15.53;54.38;98168.00;6816821;29;20211;-80
2021/12/29 12:34:08;;;;;;;4.47;2.20;;;;;;;15.13;55.17;98139.41;6815904;29;20238;-82
2021/12/29 12:37:32;;;;;;;6.27;2.67;;;;;;;15.65;53.81;98176.03;6815917;29;20234;-83
2021/12/29 12:41:03;;;;;;;4.47;2.27;;;;;;;15.43;53.41;98150.72;6816661;29;20231;-84
2021/12/29 12:44:37;;;;;;;5.53;2.00;;;;;;;15.53;54.26;98165.28;6817414;29;20219;-80
2021/12/29 12:48:05;;;;;;;4.97;1.90;;;;;;;15.92;53.09;98160.59;6816139;29;20202;-81
2021/12/29 12:51:29;;;;;;;6.57;2.33;;;;;;;15.65;53.88;98157.00;6813474;29;20235;-82
2021/12/29 12:54:53;;;;;;;6.07;1.80;;;;;;;15.58;53.92;98157.16;6814106;29;20297;-81
2021/12/29 12:58:17;;;;;;;6.10;2.70;;;;;;;15.61;53.61;98164.00;6814295;29;20247;-83
2021/12/29 13:01:45;;;;;;;4.43;2.40;;;;;;;16.06;52.96;98184.44;6791265;29;20234;-82
2021/12/29 13:05:09;;;;;;;5.30;3.23;;;;;;;15.97;53.06;98183.22;6787862;29;20202;-85
2021/12/29 13:08:33;;;;;;;4.43;2.47;;;;;;;15.29;54.28;98168.44;6806200;29;20198;-83
2021/12/29 13:11:54;;;;;;;5.33;2.43;;;;;;;15.90;53.22;98189.91;6815159;29;20230;-83
2021/12/29 13:15:20;;;;;;;3.30;2.13;;;;;;;15.94;52.87;98178.31;6814575;29;20222;-82
2021/12/29 13:18:45;;;;;;;5.87;2.97;;;;;;;16.33;51.78;98179.81;6815652;29;20304;-82
2021/12/29 13:22:06;;;;;;;4.97;2.20;;;;;;;15.43;53.82;98183.31;6816444;29;20218;-84
2021/12/29 13:25:29;;;;;;;5.53;2.67;;;;;;;15.61;53.97;98185.75;6814404;29;20222;-83
2021/12/29 13:28:51;;;;;;;4.63;2.40;;;;;;;15.68;52.96;98179.06;6816817;29;20271;-82
2021/12/29 13:32:13;;;;;;;8.47;2.93;;;;;;;15.77;53.13;98176.72;6816209;29;20230;-83
2021/12/29 13:35:38;;;;;;;7.47;2.83;;;;;;;15.34;54.17;98182.13;6814091;29;20215;-83
2021/12/29 13:39:00;;;;;;;7.73;2.50;;;;;;;15.98;53.04;98170.47;6811462;29;20269;-83
2021/12/29 13:42:24;;;;;;;4.10;2.40;;;;;;;16.29;51.62;98172.41;6812691;29;20866;-83
2021/12/29 13:45:47;;;;;;;6.87;2.47;;;;;;;16.36;50.92;98167.59;6812468;29;20674;-83
2021/12/29 13:49:11;;;;;;;2.83;2.13;;;;;;;15.60;52.78;98179.50;6812684;29;20218;-83
2021/12/29 13:52:34;;;;;;;5.70;2.47;;;;;;;15.95;51.44;98177.22;6814539;29;20317;-82
2021/12/29 13:55:58;;;;;;;4.00;2.33;;;;;;;16.09;51.24;98185.78;6817288;29;20579;-82
2021/12/29 13:59:23;;;;;;;4.60;2.10;;;;;;;15.97;51.40;98185.94;6815239;29;20231;-83
2021/12/29 14:02:45;;;;;;;5.90;2.30;;;;;;;15.87;51.59;98191.25;6817973;29;20231;-83
2021/12/29 14:06:09;;;;;;;4.53;2.13;;;;;;;15.78;51.70;98176.47;6819074;29;20279;-83
2021/12/29 14:09:35;;;;;;;5.40;2.17;;;;;;;15.43;52.27;98156.16;6815919;29;20214;-84
2021/12/29 14:13:04;;;;;;;4.50;2.10;;;;;;;15.14;53.14;98217.91;6819836;29;20235;-83
2021/12/29 14:16:27;;;;;;;3.70;2.53;;;;;;;15.36;52.13;98155.53;6815897;29;20264;-85
2021/12/29 14:19:49;;;;;;;4.40;2.20;;;;;;;15.45;52.01;98154.03;6819352;29;20284;-85
2021/12/29 14:23:11;;;;;;;4.87;1.83;;;;;;;15.42;51.96;98159.94;6809879;29;20226;-85
2021/12/29 14:26:38;;;;;;;3.43;1.83;;;;;;;15.35;52.18;98154.72;6787054;29;20207;-85
2021/12/29 14:30:00;;;;;;;3.43;1.80;;;;;;;15.43;52.03;98175.16;6807804;29;20203;-84
2021/12/29 14:33:25;;;;;;;3.03;2.10;;;;;;;15.52;52.33;98179.91;6785494;29;20739;-85
2021/12/29 14:36:50;;;;;;;4.53;2.53;;;;;;;15.48;52.84;98197.81;6789918;29;20211;-84
2021/12/29 14:40:19;;;;;;;3.50;2.23;;;;;;;15.61;52.26;98200.16;6789568;29;20215;-84
2021/12/29 14:43:42;;;;;;;3.67;2.30;;;;;;;15.67;51.87;98209.19;6790451;29;20191;-82
2021/12/29 14:47:06;;;;;;;4.00;2.03;;;;;;;15.74;51.48;98207.94;6791558;29;20212;-83
2021/12/29 14:50:27;;;;;;;3.77;2.20;;;;;;;15.87;51.48;98218.44;6792042;29;20687;-86
2021/12/29 14:53:49;;;;;;;4.00;2.67;;;;;;;15.84;51.23;98223.56;6809080;29;20210;-84
2021/12/29 14:57:13;;;;;;;4.53;3.07;;;;;;;14.97;53.19;98229.84;6799129;29;20206;-83
2021/12/29 15:00:37;;;;;;;2.67;1.90;;;;;;;15.63;51.43;98227.09;6803963;29;20247;-85
2021/12/29 15:04:00;;;;;;;3.17;2.40;;;;;;;15.65;51.82;98233.09;6786020;29;20214;-85
2021/12/29 15:07:24;;;;;;;3.23;2.37;;;;;;;15.36;52.38;98194.38;6816623;29;20684;-84
2021/12/29 15:10:54;;;;;;;4.40;2.10;;;;;;;16.00;51.00;98219.97;6814647;29;20674;-87
2021/12/29 15:14:20;;;;;;;3.50;2.10;;;;;;;15.68;51.92;98217.09;6819528;29;20739;-83
2021/12/29 15:17:55;;;;;;;3.37;1.90;;;;;;;15.37;52.80;98220.47;6815944;29;20199;-86
2021/12/29 15:21:18;;;;;;;2.10;1.90;;;;;;;14.99;54.42;98230.44;6815905;29;20223;-83
2021/12/29 15:24:40;;;;;;;5.13;2.17;;;;;;;15.18;54.27;98232.66;6818829;29;20207;-85
2021/12/29 15:28:03;;;;;;;2.57;1.83;;;;;;;15.33;53.81;98232.09;6814021;29;20207;-85
2021/12/29 15:31:26;;;;;;;3.00;2.20;;;;;;;15.63;53.08;98233.34;6823167;29;20277;-84
2021/12/29 15:34:51;;;;;;;5.00;2.23;;;;;;;14.91;55.11;98230.81;6817078;29;20303;-83
2021/12/29 15:38:13;;;;;;;4.10;2.30;;;;;;;14.84;55.68;98222.03;6817645;29;20221;-83
2021/12/29 15:41:36;;;;;;;3.63;2.00;;;;;;;15.03;55.44;98226.13;6819269;29;20222;-84
2021/12/29 15:44:58;;;;;;;4.03;2.00;;;;;;;14.89;55.62;98203.13;6816489;29;20599;-84
2021/12/29 15:48:20;;;;;;;4.50;2.50;;;;;;;15.26;54.52;98226.78;6819510;29;20667;-83
2021/12/29 15:51:43;;;;;;;4.30;2.43;;;;;;;15.22;54.21;98211.25;6827588;29;20657;-83
2021/12/29 15:55:06;;;;;;;3.27;2.33;;;;;;;15.49;54.06;98220.34;6818342;29;20261;-84
2021/12/29 15:58:29;;;;;;;3.90;2.30;;;;;;;15.62;54.03;98228.97;6820830;29;20237;-84
2021/12/29 16:01:50;;;;;;;4.00;2.30;;;;;;;14.72;54.40;98107.31;6818233;29;20258;-83
2021/12/29 16:05:12;;;;;;;3.30;2.40;;;;;;;14.79;56.40;98230.91;6819900;29;20210;-83
2021/12/29 16:08:35;;;;;;;3.83;2.20;;;;;;;14.89;55.34;98187.66;6819859;29;20213;-85
2021/12/29 16:11:57;;;;;;;5.63;2.77;;;;;;;15.23;55.32;98227.28;6820485;29;20228;-82
2021/12/29 16:15:19;;;;;;;3.10;2.67;;;;;;;15.10;55.37;98189.59;6810830;29;20217;-83
2021/12/29 16:18:41;;;;;;;2.70;2.23;;;;;;;15.24;55.88;98220.78;6804132;29;20224;-83
2021/12/29 16:22:03;;;;;;;7.23;4.37;;;;;;;14.48;58.76;98208.91;6793952;29;20230;-83
2021/12/29 16:25:28;;;;;;;4.43;2.70;;;;;;;15.01;57.55;98203.84;6798335;29;20207;-84
2021/12/29 16:28:52;;;;;;;3.00;2.67;;;;;;;14.96;57.56;98173.91;6805281;29;20600;-83
2021/12/29 16:32:14;;;;;;;3.83;2.70;;;;;;;15.03;58.05;98183.53;6809916;29;20223;-81
2021/12/29 16:35:35;;;;;;;3.03;2.33;;;;;;;14.98;58.44;98183.44;6819907;29;20269;-82
2021/12/29 16:38:58;;;;;;;3.87;2.47;;;;;;;14.66;59.06;98152.53;6819909;29;20235;-85
2021/12/29 16:42:21;;;;;;;5.00;2.40;;;;;;;14.62;59.70;98181.22;6822721;29;20222;-82
2021/12/29 16:45:43;;;;;;;4.37;2.60;;;;;;;14.73;59.48;98168.66;6820119;29;20211;-84
2021/12/29 16:49:04;;;;;;;3.83;2.50;;;;;;;14.27;60.97;98161.63;6807842;29;20209;-83
2021/12/29 16:52:26;;;;;;;3.10;2.50;;;;;;;14.19;61.67;98170.16;6814374;29;20230;-82
2021/12/29 16:55:50;;;;;;;4.20;3.20;;;;;;;14.38;61.09;98174.31;6811260;29;20214;-81
2021/12/29 16:59:13;;;;;;;4.60;3.13;;;;;;;14.16;61.44;98150.81;6799499;29;20215;-82
2021/12/29 17:02:35;;;;;;;7.37;3.63;;;;;;;13.61;63.92;98188.47;6809418;29;20279;-82
2021/12/29 17:05:57;;;;;;;7.80;4.77;;;;;;;13.79;63.59;98168.50;6815205;29;20606;-81
2021/12/29 17:09:18;;;;;;;4.40;3.80;;;;;;;13.80;63.75;98189.97;6815180;29;20240;-84
2021/12/29 17:12:41;;;;;;;7.73;4.23;;;;;;;14.37;62.20;98191.66;6821672;29;20230;-83
2021/12/29 17:16:05;;;;;;;6.03;4.87;;;;;;;14.40;61.65;98193.84;6811311;29;20206;-83
2021/12/29 17:19:27;;;;;;;6.23;5.30;;;;;;;14.11;62.91;98183.25;6820086;29;20230;-83
2021/12/29 17:22:48;;;;;;;8.77;6.00;;;;;;;14.08;62.92;98191.84;6816075;29;20226;-82
2021/12/29 17:26:10;;;;;;;6.47;4.93;;;;;;;14.00;63.46;98184.13;6800638;29;20217;-82
2021/12/29 17:29:32;;;;;;;8.60;5.40;;;;;;;13.71;64.34;98188.69;6786391;29;20282;-83
2021/12/29 17:32:55;;;;;;;6.47;5.10;;;;;;;14.09;63.42;98199.75;6796953;29;20226;-82
2021/12/29 17:36:17;;;;;;;5.97;4.63;;;;;;;13.67;64.92;98211.06;6801507;29;20210;-80
2021/12/29 17:39:39;;;;;;;4.90;4.40;;;;;;;13.40;65.43;98220.78;6797183;29;20235;-82
2021/12/29 17:43:00;;;;;;;6.50;4.60;;;;;;;13.73;65.24;98210.94;6796528;29;20227;-82
2021/12/29 17:46:23;;;;;;;5.30;4.10;;;;;;;14.18;63.63;98195.59;6795689;29;20244;-81
2021/12/29 17:49:47;;;;;;;5.83;4.23;;;;;;;13.70;65.11;98203.28;6796915;29;20302;-81
2021/12/29 17:53:09;;;;;;;5.20;4.20;;;;;;;14.09;64.06;98188.91;6798213;29;20238;-81
2021/12/29 17:56:31;;;;;;;3.77;3.47;;;;;;;14.51;62.52;98186.75;6795774;29;20199;-82
2021/12/29 17:59:55;;;;;;;3.80;3.50;;;;;;;13.90;64.33;98205.59;6798684;29;20260;-84
2021/12/29 18:03:17;;;;;;;4.20;3.87;;;;;;;13.81;64.52;98210.56;6794228;29;20238;-82
2021/12/29 18:06:41;;;;;;;4.33;3.63;;;;;;;13.12;67.46;98223.38;6794849;29;20744;-82
2021/12/29 18:10:04;;;;;;;4.57;3.47;;;;;;;13.42;66.04;98170.75;6795552;29;20210;-82
2021/12/29 18:13:29;;;;;;;3.60;3.23;;;;;;;13.41;66.74;98181.81;6797210;29;20237;-79
2021/12/29 18:16:51;;;;;;;3.30;3.00;;;;;;;14.03;65.39;98176.31;6798596;29;20255;-81
2021/12/29 18:20:14;;;;;;;3.00;2.80;;;;;;;13.93;64.66;98180.75;6802339;29;20714;-81
2021/12/29 18:23:44;;;;;;;3.40;3.10;;;;;;;13.82;65.52;98190.56;6804623;29;20206;-83
2021/12/29 18:27:09;;;;;;;3.43;3.13;;;;;;;14.00;65.02;98200.38;6820922;29;20209;-83
2021/12/29 18:30:31;;;;;;;3.33;3.03;;;;;;;14.47;63.72;98186.41;6796916;29;20206;-83
2021/12/29 18:33:52;;;;;;;4.17;2.93;;;;;;;14.47;63.22;98188.28;6794390;29;20214;-82
2021/12/29 18:37:14;;;;;;;3.40;3.10;;;;;;;14.63;63.24;98184.78;6794838;29;20207;-80
2021/12/29 18:40:40;;;;;;;4.60;4.10;;;;;;;14.36;64.42;98190.00;6811522;29;20237;-82
2021/12/29 18:44:02;;;;;;;4.10;3.70;;;;;;;14.21;64.89;98186.19;6826904;29;20300;-82
2021/12/29 18:47:25;;;;;;;5.27;4.87;;;;;;;13.79;65.67;98187.47;6824425;29;20285;-82
2021/12/29 18:50:47;;;;;;;5.40;4.90;;;;;;;13.89;66.61;98191.25;6822780;29;20242;-82
2021/12/29 18:54:08;;;;;;;3.97;3.57;;;;;;;14.60;64.18;98174.41;6822704;29;20220;-81
2021/12/29 18:57:32;;;;;;;6.60;5.00;;;;;;;14.19;65.06;98175.59;6819012;29;20225;-82
2021/12/29 19:00:55;;;;;;;4.10;3.53;;;;;;;13.87;67.54;98185.22;6820142;29;20234;-83
2021/12/29 19:04:16;;;;;;;4.50;3.23;;;;;;;14.59;64.36;98184.44;6817505;29;20223;-83
2021/12/29 19:07:38;;;;;;;3.77;3.40;;;;;;;14.64;64.26;98202.69;6814935;29;20211;-82
2021/12/29 19:11:00;;;;;;;6.97;3.53;;;;;;;14.81;63.69;98193.47;6818679;29;20234;-80
2021/12/29 19:14:25;;;;;;;3.60;2.90;;;;;;;13.82;67.02;98182.44;6819351;29;20210;-81
2021/12/29 19:17:47;;;;;;;3.60;3.30;;;;;;;14.49;65.61;98192.41;6823540;29;20357;-81
2021/12/29 19:21:09;;;;;;;3.27;2.97;;;;;;;14.55;65.32;98202.28;6822105;29;20239;-81
2021/12/29 19:24:31;;;;;;;3.53;3.23;;;;;;;14.75;64.07;98188.25;6821600;29;20322;-83
2021/12/29 19:27:53;;;;;;;4.13;3.40;;;;;;;14.42;65.48;98204.47;6822431;29;20217;-82
2021/12/29 19:31:16;;;;;;;3.83;2.83;;;;;;;14.62;65.41;98215.69;6822369;29;20230;-83
2021/12/29 19:34:39;;;;;;;3.77;3.37;;;;;;;15.04;64.13;98203.38;6818923;29;20221;-82
2021/12/29 19:38:01;;;;;;;3.10;2.90;;;;;;;15.14;63.80;98201.63;6819950;29;20223;-83
2021/12/29 19:41:22;;;;;;;5.83;4.80;;;;;;;14.77;65.01;98211.34;6821017;29;20246;-82
2021/12/29 19:44:46;;;;;;;3.50;3.20;;;;;;;15.12;64.43;98211.91;6819349;29;20210;-83
2021/12/29 19:48:09;;;;;;;4.83;3.63;;;;;;;14.77;64.79;98222.22;6819822;29;20210;-81
2021/12/29 19:51:31;;;;;;;6.23;4.80;;;;;;;14.79;65.60;98181.22;6824706;29;20231;-81
2021/12/29 19:54:53;;;;;;;3.53;3.23;;;;;;;15.16;64.30;98202.19;6822123;29;20203;-81
2021/12/29 19:58:15;;;;;;;3.40;2.90;;;;;;;14.69;64.56;98228.00;6825537;29;20691;-81
2021/12/29 20:01:36;;;;;;;3.97;3.20;;;;;;;14.39;66.02;98211.19;6822723;29;20242;-82
2021/12/29 20:05:00;;;;;;;3.60;3.10;;;;;;;15.28;64.19;98243.66;6814454;29;20691;-83
2021/12/29 20:08:23;;;;;;;3.90;3.27;;;;;;;15.66;62.64;98248.31;6814935;29;20215;-83
2021/12/29 20:11:45;;;;;;;3.27;3.07;;;;;;;14.79;64.54;98221.94;6818158;29;20234;-82
2021/12/29 20:15:08;;;;;;;3.80;2.73;;;;;;;15.33;64.19;98246.47;6815924;29;20212;-83
2021/12/29 20:18:30;;;;;;;3.87;3.30;;;;;;;15.11;63.83;98198.59;6816769;29;20225;-81
2021/12/29 20:21:55;;;;;;;6.30;5.80;;;;;;;15.05;65.59;98240.31;6815347;29;20307;-83
2021/12/29 20:25:17;;;;;;;5.83;4.70;;;;;;;15.14;65.08;98239.63;6815171;29;20215;-83
2021/12/29 20:28:41;;;;;;;3.97;3.67;;;;;;;15.10;64.97;98245.81;6811519;29;20211;-84